Time;durP1;ratioP1;P1;durP2;ratioP2;P2;SDS_P1;SDS_P2;PMS_P1;PMS_P2;Temp;Humidity;BMP_temperature;BMP_pressure;BME280_temperature;BME280_humidity;BME280_pressure;Samples;Min_cycle;Max_cycle;Signal;HPM_P1;HPM_P2
2023/03/07 00:01:29;;;;;;;26.08;24.15;;;;;;;;;;5081521;28;20664;-81
2023/03/07 00:03:57;;;;;;;26.55;24.05;;;;;;;;;;5083180;28;20246;-81
2023/03/07 00:06:24;;;;;;;27.38;24.77;;;;;;;;;;5082423;28;20234;-81
2023/03/07 00:08:52;;;;;;;27.13;24.63;;;;;;;;;;5082933;28;20199;-81
2023/03/07 00:11:19;;;;;;;23.98;22.10;;;;;;;;;;5082212;28;20203;-80
2023/03/07 00:13:46;;;;;;;29.85;27.25;;;;;;;;;;5081601;28;20248;-81
2023/03/07 00:16:14;;;;;;;26.67;24.20;;;;;;;;;;5081889;28;20223;-82
2023/03/07 00:18:41;;;;;;;24.77;22.85;;;;;;;;;;5081873;28;20300;-81
2023/03/07 00:21:11;;;;;;;22.00;20.55;;;;;;;;;;5082926;28;20211;-81
2023/03/07 00:23:39;;;;;;;27.52;25.08;;;;;;;;;;5081396;28;20214;-81
2023/03/07 00:26:07;;;;;;;23.80;22.02;;;;;;;;;;5081324;28;20273;-81
2023/03/07 00:28:34;;;;;;;27.30;24.85;;;;;;;;;;5082181;28;20667;-81
2023/03/07 00:31:02;;;;;;;26.13;24.00;;;;;;;;;;5082191;28;20261;-81
2023/03/07 00:33:29;;;;;;;24.33;22.42;;;;;;;;;;5081854;28;20584;-81
2023/03/07 00:35:57;;;;;;;29.40;26.85;;;;;;;;;;5082424;28;20219;-81
2023/03/07 00:38:25;;;;;;;27.33;25.10;;;;;;;;;;5082500;28;20207;-81
2023/03/07 00:40:59;;;;;;;25.95;23.40;;;;;;;;;;5082931;28;20234;-81
2023/03/07 00:43:26;;;;;;;26.13;23.98;;;;;;;;;;5081312;28;20261;-81
2023/03/07 00:45:53;;;;;;;22.80;21.10;;;;;;;;;;5080872;28;20687;-81
2023/03/07 00:48:21;;;;;;;25.48;23.48;;;;;;;;;;5081614;28;20203;-80
2023/03/07 00:50:48;;;;;;;29.38;26.77;;;;;;;;;;5081483;28;20191;-81
2023/03/07 00:53:15;;;;;;;22.60;20.90;;;;;;;;;;5081562;28;20202;-81
2023/03/07 00:55:43;;;;;;;27.45;25.00;;;;;;;;;;5093646;28;20250;-81
2023/03/07 00:58:10;;;;;;;27.50;25.10;;;;;;;;;;5093306;28;20229;-81
2023/03/07 01:00:37;;;;;;;28.92;26.30;;;;;;;;;;5089811;28;20203;-81
2023/03/07 01:03:04;;;;;;;24.70;22.77;;;;;;;;;;5084328;28;20736;-81
2023/03/07 01:05:32;;;;;;;26.30;24.20;;;;;;;;;;5084073;28;20284;-81
2023/03/07 01:08:00;;;;;;;24.67;22.63;;;;;;;;;;5082965;28;20207;-81
2023/03/07 01:10:28;;;;;;;24.75;22.80;;;;;;;;;;5083174;28;20203;-81
2023/03/07 01:12:56;;;;;;;26.45;23.90;;;;;;;;;;5082649;28;20698;-81
2023/03/07 01:15:23;;;;;;;25.00;23.15;;;;;;;;;;5081838;28;20219;-81
2023/03/07 01:17:50;;;;;;;23.30;21.60;;;;;;;;;;5082820;28;20199;-81
2023/03/07 01:20:17;;;;;;;27.90;25.33;;;;;;;;;;5082763;28;20193;-81
2023/03/07 01:22:44;;;;;;;23.65;21.90;;;;;;;;;;5080843;28;20540;-81
2023/03/07 01:25:12;;;;;;;22.08;20.38;;;;;;;;;;5081682;28;20280;-81
2023/03/07 01:27:39;;;;;;;24.75;22.75;;;;;;;;;;5081165;28;20243;-81
2023/03/07 01:30:08;;;;;;;24.70;22.83;;;;;;;;;;5081373;28;20268;-81
2023/03/07 01:32:35;;;;;;;23.88;21.80;;;;;;;;;;5081475;28;20207;-81
2023/03/07 01:35:02;;;;;;;26.63;24.38;;;;;;;;;;5080900;28;20199;-81
2023/03/07 01:37:29;;;;;;;24.90;22.85;;;;;;;;;;5081485;28;20202;-81
2023/03/07 01:39:56;;;;;;;23.25;21.63;;;;;;;;;;5080578;28;20717;-82
2023/03/07 01:42:23;;;;;;;27.40;25.23;;;;;;;;;;5080904;28;20208;-80
2023/03/07 01:45:06;;;;;;;24.23;22.20;;;;;;;;;;5081402;28;20207;-81
2023/03/07 01:47:34;;;;;;;24.73;22.58;;;;;;;;;;5080890;28;20245;-81
2023/03/07 01:50:03;;;;;;;24.83;23.05;;;;;;;;;;5080304;28;20203;-81
2023/03/07 01:52:32;;;;;;;23.90;22.20;;;;;;;;;;5080541;28;20363;-80
2023/03/07 01:55:00;;;;;;;23.80;22.10;;;;;;;;;;5080734;28;20249;-80
2023/03/07 01:57:30;;;;;;;26.52;24.42;;;;;;;;;;5081175;28;20208;-81
2023/03/07 02:00:00;;;;;;;25.92;23.85;;;;;;;;;;5081088;28;20226;-81
2023/03/07 02:02:28;;;;;;;24.05;22.40;;;;;;;;;;5080660;28;20709;-81
2023/03/07 02:04:59;;;;;;;21.95;20.55;;;;;;;;;;5084610;28;20275;-81
2023/03/07 02:07:29;;;;;;;24.52;22.77;;;;;;;;;;5085051;28;20590;-81
2023/03/07 02:09:56;;;;;;;25.67;23.77;;;;;;;;;;5084598;28;20207;-80
2023/03/07 02:12:23;;;;;;;28.48;26.02;;;;;;;;;;5083556;28;20191;-81
2023/03/07 02:14:50;;;;;;;26.92;24.85;;;;;;;;;;5083237;28;20256;-81
2023/03/07 02:17:18;;;;;;;25.50;23.55;;;;;;;;;;5084192;28;20245;-81
2023/03/07 02:19:53;;;;;;;22.25;20.85;;;;;;;;;;5084031;28;20214;-81
2023/03/07 02:22:22;;;;;;;27.95;25.50;;;;;;;;;;5083488;28;20216;-81
2023/03/07 02:24:50;;;;;;;24.88;23.00;;;;;;;;;;5084668;28;20219;-81
2023/03/07 02:27:19;;;;;;;28.60;25.92;;;;;;;;;;5083937;28;20227;-81
2023/03/07 02:29:46;;;;;;;25.83;23.83;;;;;;;;;;5084536;28;20207;-81
2023/03/07 02:32:14;;;;;;;25.77;23.33;;;;;;;;;;5083725;28;20609;-82
2023/03/07 02:34:41;;;;;;;25.50;23.70;;;;;;;;;;5083694;28;20257;-82
2023/03/07 02:37:11;;;;;;;27.17;25.33;;;;;;;;;;5083908;28;20227;-81
2023/03/07 02:39:39;;;;;;;27.70;25.55;;;;;;;;;;5083320;28;20249;-82
2023/03/07 02:42:09;;;;;;;28.17;26.08;;;;;;;;;;5082881;28;20199;-81
2023/03/07 02:44:37;;;;;;;27.13;25.15;;;;;;;;;;5083793;28;20195;-81
2023/03/07 02:47:07;;;;;;;30.23;27.48;;;;;;;;;;5083268;28;20752;-81
2023/03/07 02:49:34;;;;;;;25.00;23.45;;;;;;;;;;5083654;28;20190;-81
2023/03/07 02:52:01;;;;;;;29.48;27.23;;;;;;;;;;5083439;28;20556;-81
2023/03/07 02:54:28;;;;;;;24.95;23.23;;;;;;;;;;5083372;28;20264;-80
2023/03/07 02:56:55;;;;;;;28.05;25.88;;;;;;;;;;5083140;28;20215;-81
2023/03/07 02:59:22;;;;;;;28.55;26.25;;;;;;;;;;5082780;28;20196;-81
2023/03/07 03:01:51;;;;;;;29.58;27.13;;;;;;;;;;5083246;28;20203;-80
2023/03/07 03:04:18;;;;;;;32.10;29.30;;;;;;;;;;5083713;28;20207;-81
2023/03/07 03:06:45;;;;;;;30.35;27.85;;;;;;;;;;5083542;28;20227;-81
2023/03/07 03:09:12;;;;;;;27.60;25.63;;;;;;;;;;5083804;28;20590;-81
2023/03/07 03:11:39;;;;;;;28.00;25.83;;;;;;;;;;5083208;28;20207;-81
2023/03/07 03:14:06;;;;;;;27.98;25.67;;;;;;;;;;5082814;28;20203;-81
2023/03/07 03:16:33;;;;;;;24.25;22.50;;;;;;;;;;5083403;28;20223;-81
2023/03/07 03:19:02;;;;;;;28.67;26.20;;;;;;;;;;5083806;28;20203;-81
2023/03/07 03:21:29;;;;;;;23.73;22.02;;;;;;;;;;5083400;28;20208;-81
2023/03/07 03:23:56;;;;;;;29.50;27.10;;;;;;;;;;5082699;28;20203;-81
2023/03/07 03:26:23;;;;;;;21.13;19.77;;;;;;;;;;5083495;28;20245;-81
2023/03/07 03:28:50;;;;;;;29.83;27.00;;;;;;;;;;5083699;28;20226;-81
2023/03/07 03:31:17;;;;;;;23.02;21.52;;;;;;;;;;5082874;28;20305;-81
2023/03/07 03:33:44;;;;;;;23.38;21.80;;;;;;;;;;5083259;28;20662;-81
2023/03/07 03:36:15;;;;;;;27.83;25.80;;;;;;;;;;5083426;28;20246;-81
2023/03/07 03:38:42;;;;;;;28.33;25.75;;;;;;;;;;5083520;28;20221;-81
2023/03/07 03:41:11;;;;;;;30.17;27.60;;;;;;;;;;5083240;28;20204;-82
2023/03/07 03:43:37;;;;;;;23.73;22.15;;;;;;;;;;5082700;28;20194;-81
2023/03/07 03:46:05;;;;;;;23.80;22.10;;;;;;;;;;5083369;28;20628;-81
2023/03/07 03:48:32;;;;;;;24.83;23.10;;;;;;;;;;5083442;28;20203;-81
2023/03/07 03:51:03;;;;;;;26.70;24.35;;;;;;;;;;5082905;28;20203;-81
2023/03/07 03:53:32;;;;;;;26.55;24.60;;;;;;;;;;5083282;28;20208;-81
2023/03/07 03:56:03;;;;;;;29.27;26.90;;;;;;;;;;5082982;28;20238;-81
2023/03/07 03:58:30;;;;;;;26.02;24.17;;;;;;;;;;5083426;28;20219;-81
2023/03/07 04:00:57;;;;;;;29.75;27.40;;;;;;;;;;5083041;28;20241;-81
2023/03/07 04:03:24;;;;;;;32.08;29.25;;;;;;;;;;5082164;28;20203;-81
2023/03/07 04:05:51;;;;;;;25.92;24.13;;;;;;;;;;5082007;28;20223;-81
2023/03/07 04:08:18;;;;;;;33.22;30.42;;;;;;;;;;5082048;28;20204;-81
2023/03/07 04:10:46;;;;;;;28.45;26.25;;;;;;;;;;5082750;28;20245;-81
2023/03/07 04:13:13;;;;;;;24.13;22.58;;;;;;;;;;5081746;28;20249;-81
2023/03/07 04:15:40;;;;;;;28.98;26.70;;;;;;;;;;5082292;28;20227;-80
2023/03/07 04:18:07;;;;;;;37.17;33.70;;;;;;;;;;5081800;28;20211;-80
2023/03/07 04:20:34;;;;;;;28.27;26.38;;;;;;;;;;5081623;28;20234;-80
2023/03/07 04:23:01;;;;;;;33.47;30.73;;;;;;;;;;5081186;28;20199;-81
2023/03/07 04:25:28;;;;;;;35.70;32.55;;;;;;;;;;5081000;28;20239;-81
2023/03/07 04:27:56;;;;;;;28.08;26.17;;;;;;;;;;5082129;28;20226;-80
2023/03/07 04:30:23;;;;;;;36.35;33.13;;;;;;;;;;5082300;28;20531;-81
2023/03/07 04:32:52;;;;;;;39.85;36.28;;;;;;;;;;5081224;28;20222;-80
2023/03/07 04:35:19;;;;;;;32.00;29.67;;;;;;;;;;5081092;28;20227;-81
2023/03/07 04:37:46;;;;;;;36.47;33.00;;;;;;;;;;5082181;28;20246;-81
2023/03/07 04:40:13;;;;;;;37.97;34.30;;;;;;;;;;5081933;28;20607;-81
2023/03/07 04:42:40;;;;;;;35.97;32.67;;;;;;;;;;5081021;28;20200;-81
2023/03/07 04:45:09;;;;;;;39.38;35.33;;;;;;;;;;5081798;28;20199;-81
2023/03/07 04:47:36;;;;;;;32.47;29.63;;;;;;;;;;5081588;28;20777;-81
2023/03/07 04:50:03;;;;;;;33.63;30.88;;;;;;;;;;5081877;28;20203;-80
2023/03/07 04:52:30;;;;;;;31.83;29.08;;;;;;;;;;5080809;28;20229;-81
2023/03/07 04:54:57;;;;;;;32.35;29.60;;;;;;;;;;5081334;28;20200;-81
2023/03/07 04:57:24;;;;;;;30.77;28.67;;;;;;;;;;5082127;28;20225;-81
2023/03/07 04:59:51;;;;;;;32.10;29.58;;;;;;;;;;5081101;28;20195;-81
2023/03/07 05:02:20;;;;;;;30.02;27.42;;;;;;;;;;5080376;28;20229;-81
2023/03/07 05:04:47;;;;;;;33.90;30.73;;;;;;;;;;5080477;28;20605;-82
2023/03/07 05:07:14;;;;;;;39.78;35.88;;;;;;;;;;5081290;28;20223;-80
2023/03/07 05:09:41;;;;;;;37.60;33.95;;;;;;;;;;5082487;28;20209;-80
2023/03/07 05:12:08;;;;;;;34.22;31.27;;;;;;;;;;5092572;28;20199;-81
2023/03/07 05:14:35;;;;;;;34.17;31.50;;;;;;;;;;5093977;28;20229;-81
2023/03/07 05:17:02;;;;;;;41.85;38.35;;;;;;;;;;5089458;28;20256;-81
2023/03/07 05:19:31;;;;;;;44.47;40.70;;;;;;;;;;5083492;28;20210;-81
2023/03/07 05:21:58;;;;;;;40.70;37.40;;;;;;;;;;5083294;28;20227;-81
2023/03/07 05:24:25;;;;;;;44.13;40.42;;;;;;;;;;5083072;28;20211;-81
2023/03/07 05:26:52;;;;;;;42.67;39.90;;;;;;;;;;5082364;28;20737;-81
2023/03/07 05:29:19;;;;;;;40.25;37.28;;;;;;;;;;5082631;28;20203;-81
2023/03/07 05:31:46;;;;;;;33.65;31.42;;;;;;;;;;5081897;28;20222;-82
2023/03/07 05:34:14;;;;;;;35.67;33.53;;;;;;;;;;5082547;28;20195;-81
2023/03/07 05:36:43;;;;;;;39.85;37.35;;;;;;;;;;5082776;28;20277;-81
2023/03/07 05:39:10;;;;;;;36.45;34.25;;;;;;;;;;5085163;28;20222;-81
2023/03/07 05:41:37;;;;;;;37.70;35.50;;;;;;;;;;5084370;28;21096;-82
2023/03/07 05:44:04;;;;;;;36.13;33.92;;;;;;;;;;5085485;28;20211;-82
2023/03/07 05:46:31;;;;;;;36.60;34.50;;;;;;;;;;5084786;28;20251;-82
2023/03/07 05:48:58;;;;;;;34.95;32.58;;;;;;;;;;5084834;28;20203;-82
2023/03/07 05:51:25;;;;;;;35.97;33.50;;;;;;;;;;5084613;28;20203;-82
2023/03/07 05:53:53;;;;;;;38.05;35.53;;;;;;;;;;5084844;28;20256;-82
2023/03/07 05:56:20;;;;;;;37.15;34.85;;;;;;;;;;5083948;28;20245;-81
2023/03/07 05:58:47;;;;;;;37.10;34.80;;;;;;;;;;5084578;28;20226;-81
2023/03/07 06:01:14;;;;;;;37.13;34.95;;;;;;;;;;5083699;28;20253;-81
2023/03/07 06:03:42;;;;;;;38.38;36.25;;;;;;;;;;5084303;28;20701;-82
2023/03/07 06:06:11;;;;;;;35.58;33.67;;;;;;;;;;5083490;28;20586;-81
2023/03/07 06:08:38;;;;;;;38.90;36.53;;;;;;;;;;5084826;28;20230;-81
2023/03/07 06:11:06;;;;;;;40.20;37.78;;;;;;;;;;5083965;28;20230;-81
2023/03/07 06:13:33;;;;;;;35.35;33.45;;;;;;;;;;5082953;28;20199;-81
2023/03/07 06:16:00;;;;;;;41.47;39.08;;;;;;;;;;5083546;28;20216;-81
2023/03/07 06:18:27;;;;;;;41.13;38.50;;;;;;;;;;5083736;28;20207;-82
2023/03/07 06:20:55;;;;;;;38.42;36.22;;;;;;;;;;5083587;28;20203;-81
2023/03/07 06:23:22;;;;;;;39.30;36.90;;;;;;;;;;5083231;28;20213;-81
2023/03/07 06:25:49;;;;;;;39.65;37.47;;;;;;;;;;5083056;28;20231;-81
2023/03/07 06:28:18;;;;;;;44.90;41.83;;;;;;;;;;5083116;28;20219;-81
2023/03/07 06:30:45;;;;;;;40.97;38.53;;;;;;;;;;5083393;28;20204;-81
2023/03/07 06:33:12;;;;;;;42.88;40.30;;;;;;;;;;5082935;28;20229;-82
2023/03/07 06:35:39;;;;;;;42.92;40.53;;;;;;;;;;5083705;28;20284;-81
2023/03/07 06:38:06;;;;;;;39.03;36.83;;;;;;;;;;5082653;28;20206;-81
2023/03/07 06:40:33;;;;;;;40.35;37.72;;;;;;;;;;5082032;28;20265;-81
2023/03/07 06:43:00;;;;;;;38.25;36.17;;;;;;;;;;5082873;28;20191;-81
2023/03/07 06:45:29;;;;;;;40.22;37.53;;;;;;;;;;5082782;28;20219;-82
2023/03/07 06:47:56;;;;;;;42.20;39.38;;;;;;;;;;5082432;28;20215;-80
2023/03/07 06:50:23;;;;;;;38.17;35.88;;;;;;;;;;5076982;28;20733;-79
2023/03/07 06:52:50;;;;;;;38.40;36.15;;;;;;;;;;5076485;28;20203;-79
2023/03/07 06:55:17;;;;;;;39.55;37.20;;;;;;;;;;5078145;28;20726;-81
2023/03/07 06:57:44;;;;;;;37.70;35.38;;;;;;;;;;5081739;28;20241;-80
2023/03/07 07:00:12;;;;;;;39.60;37.00;;;;;;;;;;5082380;28;20203;-81
2023/03/07 07:02:40;;;;;;;39.08;36.65;;;;;;;;;;5077195;28;20202;-78
2023/03/07 07:05:08;;;;;;;42.22;39.28;;;;;;;;;;5076078;28;20203;-78
2023/03/07 07:07:35;;;;;;;43.47;40.63;;;;;;;;;;5075450;28;20219;-78
2023/03/07 07:10:02;;;;;;;42.22;39.63;;;;;;;;;;5076064;28;20663;-79
2023/03/07 07:12:29;;;;;;;45.45;41.75;;;;;;;;;;5075366;28;20729;-79
2023/03/07 07:14:55;;;;;;;49.10;45.08;;;;;;;;;;5075897;28;20663;-79
2023/03/07 07:17:23;;;;;;;48.97;45.13;;;;;;;;;;5075450;28;20207;-79
2023/03/07 07:19:51;;;;;;;47.47;43.58;;;;;;;;;;5076011;28;20210;-79
2023/03/07 07:22:18;;;;;;;49.85;45.88;;;;;;;;;;5075411;28;20203;-79
2023/03/07 07:24:45;;;;;;;51.97;48.00;;;;;;;;;;5076239;28;20219;-78
2023/03/07 07:27:12;;;;;;;47.00;43.67;;;;;;;;;;5077506;28;20281;-77
2023/03/07 07:29:39;;;;;;;47.20;44.10;;;;;;;;;;5078040;28;20199;-78
2023/03/07 07:32:07;;;;;;;44.38;41.70;;;;;;;;;;5074599;28;20253;-78
2023/03/07 07:34:34;;;;;;;50.47;46.60;;;;;;;;;;5074982;28;20203;-78
2023/03/07 07:37:02;;;;;;;39.67;37.40;;;;;;;;;;5074915;28;20269;-79
2023/03/07 07:39:29;;;;;;;44.88;42.03;;;;;;;;;;5074367;28;20207;-78
2023/03/07 07:41:56;;;;;;;55.42;50.72;;;;;;;;;;5074280;28;20203;-78
2023/03/07 07:44:23;;;;;;;51.67;47.30;;;;;;;;;;5074753;28;20256;-78
2023/03/07 07:46:50;;;;;;;45.15;41.97;;;;;;;;;;5074968;28;20273;-78
2023/03/07 07:49:17;;;;;;;45.38;42.13;;;;;;;;;;5074360;28;20203;-78
2023/03/07 07:51:44;;;;;;;42.33;39.53;;;;;;;;;;5074142;28;20206;-79
2023/03/07 07:54:12;;;;;;;41.47;38.78;;;;;;;;;;5074530;28;20207;-78
2023/03/07 07:56:40;;;;;;;39.47;37.20;;;;;;;;;;5074292;28;20703;-78
2023/03/07 07:59:07;;;;;;;44.30;41.45;;;;;;;;;;5074078;28;20199;-78
2023/03/07 08:01:34;;;;;;;47.22;44.22;;;;;;;;;;5073925;28;20199;-79
2023/03/07 08:04:01;;;;;;;52.00;48.92;;;;;;;;;;5074151;28;20663;-78
2023/03/07 08:06:29;;;;;;;40.53;38.13;;;;;;;;;;5074376;28;20223;-78
2023/03/07 08:08:58;;;;;;;42.97;40.17;;;;;;;;;;5073989;28;20732;-78
2023/03/07 08:11:27;;;;;;;43.65;40.95;;;;;;;;;;5073417;28;20245;-79
2023/03/07 08:13:54;;;;;;;44.65;41.83;;;;;;;;;;5074434;28;20225;-78
2023/03/07 08:16:23;;;;;;;43.97;41.03;;;;;;;;;;5074229;28;20630;-78
2023/03/07 08:18:51;;;;;;;39.38;37.03;;;;;;;;;;5074214;28;20199;-78
2023/03/07 08:21:18;;;;;;;44.80;41.88;;;;;;;;;;5073178;28;20207;-79
2023/03/07 08:23:45;;;;;;;44.15;41.25;;;;;;;;;;5074506;28;20667;-77
2023/03/07 08:26:13;;;;;;;41.83;39.42;;;;;;;;;;5074539;28;20230;-77
2023/03/07 08:28:42;;;;;;;45.13;42.45;;;;;;;;;;5074262;28;20219;-78
2023/03/07 08:31:09;;;;;;;43.60;40.90;;;;;;;;;;5074007;28;20202;-77
2023/03/07 08:33:36;;;;;;;43.83;41.03;;;;;;;;;;5061514;28;20208;-81
2023/03/07 08:36:04;;;;;;;43.60;40.88;;;;;;;;;;5055479;28;20224;-75
2023/03/07 08:38:31;;;;;;;43.50;40.70;;;;;;;;;;5056129;28;20184;-82
2023/03/07 08:41:00;;;;;;;44.55;41.47;;;;;;;;;;5057757;28;20200;-81
2023/03/07 08:43:28;;;;;;;43.67;41.00;;;;;;;;;;5056095;28;20618;-81
2023/03/07 08:45:56;;;;;;;42.75;39.95;;;;;;;;;;5060803;28;20585;-76
2023/03/07 08:48:23;;;;;;;40.30;38.05;;;;;;;;;;5077253;28;20215;-81
2023/03/07 08:50:51;;;;;;;39.15;36.95;;;;;;;;;;5078028;28;20207;-82
2023/03/07 08:53:18;;;;;;;41.30;38.90;;;;;;;;;;5077041;28;20200;-82
2023/03/07 08:55:45;;;;;;;42.90;40.33;;;;;;;;;;5077153;28;20223;-82
2023/03/07 08:58:13;;;;;;;40.28;37.97;;;;;;;;;;5076219;28;20241;-75
2023/03/07 09:00:40;;;;;;;39.60;37.50;;;;;;;;;;5076605;28;20203;-80
2023/03/07 09:03:08;;;;;;;52.55;48.53;;;;;;;;;;5075737;28;20195;-80
2023/03/07 09:05:37;;;;;;;41.45;39.03;;;;;;;;;;5075625;28;20300;-81
2023/03/07 09:08:04;;;;;;;41.15;38.40;;;;;;;;;;5074525;28;20233;-80
2023/03/07 09:10:31;;;;;;;37.67;35.58;;;;;;;;;;5075621;28;20630;-80
2023/03/07 09:12:58;;;;;;;36.03;33.75;;;;;;;;;;5078888;28;20229;-79
2023/03/07 09:15:25;;;;;;;37.60;35.60;;;;;;;;;;5080036;28;20223;-79
2023/03/07 09:17:52;;;;;;;38.05;35.90;;;;;;;;;;5080064;28;20242;-80
2023/03/07 09:20:21;;;;;;;39.65;37.30;;;;;;;;;;5079294;28;20203;-80
2023/03/07 09:22:50;;;;;;;38.50;35.80;;;;;;;;;;5079233;28;20660;-80
2023/03/07 09:25:17;;;;;;;38.47;36.38;;;;;;;;;;5079139;28;20227;-80
2023/03/07 09:27:44;;;;;;;37.25;35.15;;;;;;;;;;5077263;28;20314;-76
2023/03/07 09:30:12;;;;;;;41.10;38.70;;;;;;;;;;5088444;28;20341;-78
2023/03/07 09:32:39;;;;;;;39.33;37.28;;;;;;;;;;5093300;28;20203;-82
2023/03/07 09:35:06;;;;;;;40.03;37.92;;;;;;;;;;5089058;28;20207;-87
2023/03/07 09:37:34;;;;;;;40.80;38.25;;;;;;;;;;5077842;28;20254;-78
2023/03/07 09:40:03;;;;;;;39.97;37.88;;;;;;;;;;5077656;28;20250;-84
2023/03/07 09:42:34;;;;;;;39.60;37.60;;;;;;;;;;5079746;28;20552;-77
2023/03/07 09:45:15;;;;;;;43.95;41.55;;;;;;;;;;5076687;28;20194;-78
2023/03/07 09:47:53;;;;;;;43.55;41.20;;;;;;;;;;5076927;28;20568;-78
2023/03/07 09:50:23;;;;;;;44.38;42.08;;;;;;;;;;5070168;28;20283;-78
2023/03/07 09:52:54;;;;;;;46.55;43.80;;;;;;;;;;5055989;28;20266;-79
2023/03/07 09:55:22;;;;;;;48.38;45.45;;;;;;;;;;5056928;28;20224;-78
2023/03/07 09:57:50;;;;;;;45.53;42.90;;;;;;;;;;5057051;28;20258;-78
2023/03/07 10:00:20;;;;;;;46.58;43.97;;;;;;;;;;5056982;28;20258;-78
2023/03/07 10:02:49;;;;;;;43.30;40.90;;;;;;;;;;5056493;28;20204;-76
2023/03/07 10:05:22;;;;;;;47.50;44.75;;;;;;;;;;5056795;28;20703;-78
2023/03/07 10:07:49;;;;;;;43.70;41.25;;;;;;;;;;5056836;28;20204;-78
2023/03/07 10:10:20;;;;;;;43.75;41.35;;;;;;;;;;5056613;28;20200;-78
2023/03/07 10:13:03;;;;;;;45.63;43.22;;;;;;;;;;5056206;28;20191;-78
2023/03/07 10:15:53;;;;;;;47.92;45.42;;;;;;;;;;5057614;28;20247;-80
2023/03/07 10:18:32;;;;;;;46.10;43.55;;;;;;;;;;5042921;28;20259;-78
2023/03/07 10:21:02;;;;;;;48.00;45.60;;;;;;;;;;5057286;28;20192;-78
2023/03/07 10:23:36;;;;;;;49.20;46.45;;;;;;;;;;5056519;28;20313;-82
2023/03/07 10:26:08;;;;;;;48.38;45.70;;;;;;;;;;5058179;28;20231;-79
2023/03/07 10:28:36;;;;;;;47.35;44.70;;;;;;;;;;5057612;28;20577;-78
2023/03/07 10:31:11;;;;;;;46.35;43.85;;;;;;;;;;5056934;28;20200;-78
2023/03/07 10:33:40;;;;;;;47.38;44.45;;;;;;;;;;5056892;28;20628;-79
2023/03/07 10:36:11;;;;;;;47.83;45.13;;;;;;;;;;5056659;28;20232;-78
2023/03/07 10:38:40;;;;;;;44.85;42.45;;;;;;;;;;5057660;28;20185;-80
2023/03/07 10:41:12;;;;;;;49.10;46.20;;;;;;;;;;5057926;28;20672;-79
2023/03/07 10:43:40;;;;;;;50.30;47.45;;;;;;;;;;5058307;28;20235;-79
2023/03/07 10:46:11;;;;;;;45.00;42.70;;;;;;;;;;5057659;28;20228;-80
2023/03/07 10:48:40;;;;;;;50.90;47.80;;;;;;;;;;5058270;28;20208;-79
2023/03/07 10:51:09;;;;;;;53.47;50.33;;;;;;;;;;5056646;28;20204;-78
2023/03/07 10:53:38;;;;;;;50.38;47.78;;;;;;;;;;5055871;28;20257;-79
2023/03/07 10:56:14;;;;;;;62.20;57.70;;;;;;;;;;5055234;28;20274;-78
2023/03/07 10:58:59;;;;;;;50.25;47.50;;;;;;;;;;5056097;28;20184;-78
2023/03/07 11:01:27;;;;;;;58.28;54.58;;;;;;;;;;5054539;28;20192;-79
2023/03/07 11:03:55;;;;;;;54.63;51.33;;;;;;;;;;5055880;28;20207;-78
2023/03/07 11:06:36;;;;;;;51.42;48.63;;;;;;;;;;5055612;28;20648;-78
2023/03/07 11:09:16;;;;;;;54.60;51.20;;;;;;;;;;5055431;28;20676;-78
2023/03/07 11:11:49;;;;;;;61.20;55.50;;;;;;;;;;5055460;28;20603;-78
2023/03/07 11:14:16;;;;;;;57.17;54.00;;;;;;;;;;5054689;28;20212;-78
2023/03/07 11:16:48;;;;;;;60.08;56.03;;;;;;;;;;5055450;28;20286;-78
2023/03/07 11:19:28;;;;;;;61.08;56.92;;;;;;;;;;5054928;28;20249;-78
2023/03/07 11:21:56;;;;;;;75.72;63.45;;;;;;;;;;5055898;28;20242;-85
2023/03/07 11:24:25;;;;;;;60.03;55.92;;;;;;;;;;5058601;28;20212;-78
2023/03/07 11:26:55;;;;;;;58.25;54.53;;;;;;;;;;5055328;28;20227;-78
2023/03/07 11:29:23;;;;;;;64.35;60.08;;;;;;;;;;5054914;28;20204;-78
2023/03/07 11:31:53;;;;;;;59.90;55.97;;;;;;;;;;5054176;28;20209;-78
2023/03/07 11:34:27;;;;;;;57.97;54.78;;;;;;;;;;5054395;28;20683;-78
2023/03/07 11:36:56;;;;;;;77.80;72.55;;;;;;;;;;5054899;28;20228;-78
2023/03/07 11:39:28;;;;;;;62.53;58.80;;;;;;;;;;5054224;28;20220;-77
2023/03/07 11:41:59;;;;;;;58.90;55.60;;;;;;;;;;5054305;28;20185;-78
2023/03/07 11:44:31;;;;;;;58.22;55.03;;;;;;;;;;5054794;28;20268;-77
2023/03/07 11:47:05;;;;;;;54.85;51.90;;;;;;;;;;5054251;28;20230;-78
2023/03/07 11:49:41;;;;;;;57.85;54.35;;;;;;;;;;5054812;28;20280;-78
2023/03/07 11:52:13;;;;;;;56.83;53.67;;;;;;;;;;5053425;28;20737;-77
2023/03/07 11:54:44;;;;;;;56.92;53.70;;;;;;;;;;5054604;28;20192;-77
2023/03/07 11:57:19;;;;;;;55.45;52.30;;;;;;;;;;5054122;28;20224;-78
2023/03/07 11:59:54;;;;;;;55.33;52.00;;;;;;;;;;5055204;28;20184;-79
2023/03/07 12:02:29;;;;;;;51.53;48.60;;;;;;;;;;5053224;28;20745;-78
2023/03/07 12:05:17;;;;;;;51.65;48.92;;;;;;;;;;5054584;28;20184;-78
2023/03/07 12:07:54;;;;;;;50.20;47.22;;;;;;;;;;5054246;28;20637;-79
2023/03/07 12:10:29;;;;;;;50.80;47.72;;;;;;;;;;5059107;28;20715;-80
2023/03/07 12:13:04;;;;;;;53.30;49.80;;;;;;;;;;5053894;28;20603;-77
2023/03/07 12:15:35;;;;;;;52.65;49.55;;;;;;;;;;5054720;28;20219;-83
2023/03/07 12:18:15;;;;;;;55.20;52.10;;;;;;;;;;5056612;28;20189;-78
2023/03/07 12:20:46;;;;;;;52.50;49.67;;;;;;;;;;5057497;28;20185;-86
2023/03/07 12:23:18;;;;;;;53.13;49.83;;;;;;;;;;5054661;28;20188;-78
2023/03/07 12:25:46;;;;;;;53.80;50.78;;;;;;;;;;5055418;28;20287;-87
2023/03/07 12:28:18;;;;;;;48.45;45.90;;;;;;;;;;5058427;28;20204;-80
2023/03/07 12:30:50;;;;;;;47.55;45.05;;;;;;;;;;5077306;28;20236;-85
2023/03/07 12:33:21;;;;;;;46.65;44.08;;;;;;;;;;5078365;28;20195;-84
2023/03/07 12:35:50;;;;;;;53.28;50.17;;;;;;;;;;5075662;28;20220;-78
2023/03/07 12:38:20;;;;;;;52.17;49.38;;;;;;;;;;5072909;28;20689;-78
2023/03/07 12:40:49;;;;;;;55.53;52.03;;;;;;;;;;5074397;28;20238;-76
2023/03/07 12:43:22;;;;;;;52.63;49.60;;;;;;;;;;5072889;28;20667;-76
2023/03/07 12:45:51;;;;;;;52.33;49.25;;;;;;;;;;5072743;28;20234;-76
2023/03/07 12:48:22;;;;;;;55.80;52.33;;;;;;;;;;5073406;28;20207;-76
2023/03/07 12:50:54;;;;;;;56.95;53.05;;;;;;;;;;5073642;28;20628;-76
2023/03/07 12:53:27;;;;;;;58.50;54.60;;;;;;;;;;5073325;28;20183;-81
2023/03/07 12:55:56;;;;;;;59.75;55.83;;;;;;;;;;5075375;28;20220;-76
2023/03/07 12:58:32;;;;;;;59.60;55.25;;;;;;;;;;5073743;28;20268;-76
2023/03/07 13:01:03;;;;;;;55.25;52.20;;;;;;;;;;5072975;28;20659;-76
2023/03/07 13:03:34;;;;;;;53.75;50.45;;;;;;;;;;5072999;28;20226;-76
2023/03/07 13:06:02;;;;;;;52.92;49.92;;;;;;;;;;5072622;28;20695;-80
2023/03/07 13:08:29;;;;;;;55.10;51.83;;;;;;;;;;5073597;28;20207;-76
2023/03/07 13:10:56;;;;;;;52.95;49.85;;;;;;;;;;5073685;28;20232;-75
2023/03/07 13:13:42;;;;;;;52.03;49.33;;;;;;;;;;5072654;28;20674;-76
2023/03/07 13:16:12;;;;;;;54.00;50.80;;;;;;;;;;5073545;28;20280;-76
2023/03/07 13:18:39;;;;;;;53.88;49.95;;;;;;;;;;5073461;28;20199;-75
2023/03/07 13:21:08;;;;;;;51.75;48.40;;;;;;;;;;5073291;28;20199;-76
2023/03/07 13:23:35;;;;;;;49.15;46.33;;;;;;;;;;5072851;28;20203;-75
2023/03/07 13:26:03;;;;;;;48.25;45.25;;;;;;;;;;5072897;28;20270;-75
2023/03/07 13:28:32;;;;;;;49.33;46.13;;;;;;;;;;5072421;28;20208;-76
2023/03/07 13:31:18;;;;;;;51.30;48.25;;;;;;;;;;5073350;28;20660;-75
2023/03/07 13:33:46;;;;;;;52.42;49.08;;;;;;;;;;5073104;28;20200;-75
2023/03/07 13:36:28;;;;;;;52.30;48.80;;;;;;;;;;5073133;28;20269;-76
2023/03/07 13:38:55;;;;;;;50.75;47.90;;;;;;;;;;5073323;28;20237;-75
2023/03/07 13:41:37;;;;;;;56.13;52.72;;;;;;;;;;5071976;28;20203;-75
2023/03/07 13:44:05;;;;;;;51.15;48.30;;;;;;;;;;5072923;28;20260;-75
2023/03/07 13:46:46;;;;;;;52.58;49.05;;;;;;;;;;5073349;28;20228;-76
2023/03/07 13:49:28;;;;;;;49.42;46.50;;;;;;;;;;5073151;28;20219;-76
2023/03/07 13:52:10;;;;;;;49.00;46.20;;;;;;;;;;5072575;28;20280;-76
2023/03/07 13:54:41;;;;;;;50.03;46.92;;;;;;;;;;5073104;28;20199;-77
2023/03/07 13:57:14;;;;;;;48.65;45.80;;;;;;;;;;5072847;28;20219;-77
2023/03/07 13:59:41;;;;;;;44.97;42.40;;;;;;;;;;5075163;28;20192;-77
2023/03/07 14:02:13;;;;;;;48.50;45.50;;;;;;;;;;5074437;28;20207;-77
2023/03/07 14:04:43;;;;;;;41.63;39.38;;;;;;;;;;5076543;28;20237;-76
2023/03/07 14:07:12;;;;;;;43.47;40.78;;;;;;;;;;5076301;28;20277;-76
2023/03/07 14:09:40;;;;;;;44.75;41.92;;;;;;;;;;5076490;28;20241;-76
2023/03/07 14:12:14;;;;;;;43.30;40.63;;;;;;;;;;5076019;28;20199;-77
2023/03/07 14:14:46;;;;;;;44.45;41.65;;;;;;;;;;5076927;28;20237;-76
2023/03/07 14:17:27;;;;;;;39.83;37.22;;;;;;;;;;5075706;28;20223;-76
2023/03/07 14:19:57;;;;;;;42.08;39.40;;;;;;;;;;5076512;28;20187;-77
2023/03/07 14:22:33;;;;;;;41.63;38.67;;;;;;;;;;5075564;28;20241;-76
2023/03/07 14:25:08;;;;;;;39.33;36.90;;;;;;;;;;5076109;28;20211;-77
2023/03/07 14:27:48;;;;;;;39.35;36.97;;;;;;;;;;5076341;28;20187;-76